Maldives Meteorological Service

TAFS

Station TAF
VRMM
VRMM 081700Z 0818/0924 30007KT 9999 FEW019 TEMPO 0818/0824 FEW019CB=
VRMH
VRMH 081700Z 0818/0924 34006KT 9999 FEW018 TEMPO 0818/0824 6000 –TSRA FEW018CB
VRMK
VRMK 081700Z 0818/0918 27004KT 9999 FEW018 TEMPO 0818/0824 FEW019CB=
VRMT
VRMT 081700Z 0818/0918 27004KT 9999 FEW018 TEMPO 0818/0824 FEW018CB=
VRMG
VRMG 081700Z 0818/0924 31008KT 9999 FEW018 TEMPO 0818/0824 6000 –TSRA FEW018CB=